sensor_id;sensor_type;location;lat;lon;timestamp;pressure;altitude;pressure_sealevel;temperature;humidity
19777;BME280;10047;42.490;26.012;2023-06-14T00:02:02;101778.13;;;19.31;100.00
19777;BME280;10047;42.490;26.012;2023-06-14T00:04:28;101806.41;;;19.34;100.00
19777;BME280;10047;42.490;26.012;2023-06-14T00:06:54;101796.19;;;19.31;100.00
19777;BME280;10047;42.490;26.012;2023-06-14T00:09:22;101793.22;;;19.17;100.00
19777;BME280;10047;42.490;26.012;2023-06-14T00:11:47;101702.66;;;18.76;100.00
19777;BME280;10047;42.490;26.012;2023-06-14T00:14:13;101788.22;;;19.12;100.00
19777;BME280;10047;42.490;26.012;2023-06-14T00:16:39;101786.69;;;19.07;100.00
19777;BME280;10047;42.490;26.012;2023-06-14T00:19:08;101783.22;;;19.08;100.00
19777;BME280;10047;42.490;26.012;2023-06-14T00:21:33;101719.56;;;18.85;100.00
19777;BME280;10047;42.490;26.012;2023-06-14T00:24:00;101789.38;;;19.28;100.00
19777;BME280;10047;42.490;26.012;2023-06-14T00:29:47;101707.22;;;18.68;100.00
19777;BME280;10047;42.490;26.012;2023-06-14T00:35:35;101644.59;;;18.40;100.00
19777;BME280;10047;42.490;26.012;2023-06-14T00:38:00;101650.34;;;18.50;100.00
19777;BME280;10047;42.490;26.012;2023-06-14T00:40:26;101715.59;;;18.99;100.00
19777;BME280;10047;42.490;26.012;2023-06-14T00:42:52;101683.41;;;18.62;100.00
19777;BME280;10047;42.490;26.012;2023-06-14T00:48:39;101680.47;;;18.48;100.00
19777;BME280;10047;42.490;26.012;2023-06-14T00:54:33;101715.84;;;18.92;100.00
19777;BME280;10047;42.490;26.012;2023-06-14T00:56:59;101706.81;;;18.80;100.00
19777;BME280;10047;42.490;26.012;2023-06-14T00:59:25;101672.31;;;18.60;100.00
19777;BME280;10047;42.490;26.012;2023-06-14T01:05:11;101683.41;;;18.62;100.00
19777;BME280;10047;42.490;26.012;2023-06-14T01:07:43;101740.16;;;18.85;100.00
19777;BME280;10047;42.490;26.012;2023-06-14T01:13:01;101664.00;;;18.52;100.00
19777;BME280;10047;42.490;26.012;2023-06-14T01:15:30;101726.25;;;18.64;100.00
19777;BME280;10047;42.490;26.012;2023-06-14T01:21:22;101736.38;;;18.95;100.00
19777;BME280;10047;42.490;26.012;2023-06-14T01:23:47;101733.19;;;18.62;100.00
19777;BME280;10047;42.490;26.012;2023-06-14T01:26:24;101658.03;;;18.24;100.00
19777;BME280;10047;42.490;26.012;2023-06-14T01:32:13;101620.25;;;17.98;100.00
19777;BME280;10047;42.490;26.012;2023-06-14T01:38:02;101725.31;;;18.67;100.00
19777;BME280;10047;42.490;26.012;2023-06-14T01:40:30;101691.25;;;18.31;100.00
19777;BME280;10047;42.490;26.012;2023-06-14T01:42:57;101717.75;;;18.35;100.00
19777;BME280;10047;42.490;26.012;2023-06-14T01:45:23;101685.66;;;17.92;100.00
19777;BME280;10047;42.490;26.012;2023-06-14T01:47:49;101636.03;;;17.60;100.00
19777;BME280;10047;42.490;26.012;2023-06-14T01:50:15;101684.41;;;18.04;100.00
19777;BME280;10047;42.490;26.012;2023-06-14T01:52:41;101643.28;;;17.75;100.00
19777;BME280;10047;42.490;26.012;2023-06-14T01:58:28;101704.22;;;18.02;100.00
19777;BME280;10047;42.490;26.012;2023-06-14T02:00:53;101759.50;;;18.72;100.00
19777;BME280;10047;42.490;26.012;2023-06-14T02:06:42;101768.91;;;18.47;100.00
19777;BME280;10047;42.490;26.012;2023-06-14T02:09:07;101714.97;;;18.14;100.00
19777;BME280;10047;42.490;26.012;2023-06-14T02:11:33;101701.13;;;17.91;100.00
19777;BME280;10047;42.490;26.012;2023-06-14T02:13:58;101796.00;;;18.32;100.00
19777;BME280;10047;42.490;26.012;2023-06-14T02:19:46;101701.69;;;18.00;100.00
19777;BME280;10047;42.490;26.012;2023-06-14T02:22:12;101780.72;;;18.26;100.00
19777;BME280;10047;42.490;26.012;2023-06-14T02:24:40;101667.63;;;17.65;100.00
19777;BME280;10047;42.490;26.012;2023-06-14T02:27:05;101792.88;;;18.21;100.00
19777;BME280;10047;42.490;26.012;2023-06-14T02:32:53;101644.88;;;17.51;100.00
19777;BME280;10047;42.490;26.012;2023-06-14T02:38:40;101761.78;;;17.99;100.00
19777;BME280;10047;42.490;26.012;2023-06-14T02:41:06;101741.91;;;17.75;100.00
19777;BME280;10047;42.490;26.012;2023-06-14T02:43:31;101718.47;;;17.55;100.00
19777;BME280;10047;42.490;26.012;2023-06-14T02:45:57;101795.13;;;18.04;100.00
19777;BME280;10047;42.490;26.012;2023-06-14T02:51:44;101754.91;;;17.71;100.00
19777;BME280;10047;42.490;26.012;2023-06-14T02:57:50;101744.25;;;17.21;100.00
19777;BME280;10047;42.490;26.012;2023-06-14T03:00:16;101690.59;;;16.79;100.00
19777;BME280;10047;42.490;26.012;2023-06-14T03:06:03;101767.06;;;17.33;100.00
19777;BME280;10047;42.490;26.012;2023-06-14T03:11:53;101708.03;;;16.66;100.00
19777;BME280;10047;42.490;26.012;2023-06-14T03:14:18;101740.25;;;16.78;100.00
19777;BME280;10047;42.490;26.012;2023-06-14T03:16:44;101737.38;;;16.90;100.00
19777;BME280;10047;42.490;26.012;2023-06-14T03:19:10;101759.66;;;17.23;100.00
19777;BME280;10047;42.490;26.012;2023-06-14T03:24:58;101755.50;;;17.50;100.00
19777;BME280;10047;42.490;26.012;2023-06-14T03:27:24;101792.53;;;17.75;100.00
19777;BME280;10047;42.490;26.012;2023-06-14T03:29:50;101806.16;;;17.46;100.00
19777;BME280;10047;42.490;26.012;2023-06-14T03:32:16;101726.88;;;16.99;100.00
19777;BME280;10047;42.490;26.012;2023-06-14T03:34:41;101672.22;;;16.60;100.00
19777;BME280;10047;42.490;26.012;2023-06-14T03:37:07;101720.41;;;16.84;100.00
19777;BME280;10047;42.490;26.012;2023-06-14T03:39:33;101735.50;;;16.96;100.00
19777;BME280;10047;42.490;26.012;2023-06-14T03:41:58;101808.06;;;17.40;100.00
19777;BME280;10047;42.490;26.012;2023-06-14T03:47:45;101717.94;;;16.81;100.00
19777;BME280;10047;42.490;26.012;2023-06-14T03:50:11;101746.97;;;17.15;100.00
19777;BME280;10047;42.490;26.012;2023-06-14T03:52:37;101804.19;;;17.25;100.00
19777;BME280;10047;42.490;26.012;2023-06-14T03:55:03;101795.28;;;17.37;100.00
19777;BME280;10047;42.490;26.012;2023-06-14T04:01:08;101770.56;;;17.63;100.00
19777;BME280;10047;42.490;26.012;2023-06-14T04:03:34;101779.13;;;17.64;100.00
19777;BME280;10047;42.490;26.012;2023-06-14T04:09:20;101746.31;;;17.72;100.00
19777;BME280;10047;42.490;26.012;2023-06-14T04:15:08;101802.25;;;18.24;100.00
19777;BME280;10047;42.490;26.012;2023-06-14T04:17:34;101807.94;;;18.05;100.00
19777;BME280;10047;42.490;26.012;2023-06-14T04:20:01;101827.63;;;18.06;100.00
19777;BME280;10047;42.490;26.012;2023-06-14T04:22:26;101818.72;;;18.18;100.00
19777;BME280;10047;42.490;26.012;2023-06-14T04:28:16;101818.94;;;18.40;100.00
19777;BME280;10047;42.490;26.012;2023-06-14T04:34:04;101753.91;;;18.59;100.00
19777;BME280;10047;42.490;26.012;2023-06-14T04:39:52;101775.66;;;18.77;100.00
19777;BME280;10047;42.490;26.012;2023-06-14T04:42:17;101860.66;;;19.31;100.00
19777;BME280;10047;42.490;26.012;2023-06-14T04:44:45;101850.41;;;19.29;100.00
19777;BME280;10047;42.490;26.012;2023-06-14T04:47:12;101860.38;;;19.40;100.00
19777;BME280;10047;42.490;26.012;2023-06-14T04:49:39;101803.53;;;19.43;100.00
19777;BME280;10047;42.490;26.012;2023-06-14T04:52:06;101875.03;;;19.87;100.00
19777;BME280;10047;42.490;26.012;2023-06-14T04:54:32;101891.47;;;20.32;100.00
19777;BME280;10047;42.490;26.012;2023-06-14T05:00:20;101808.78;;;20.09;100.00
19777;BME280;10047;42.490;26.012;2023-06-14T05:06:08;101785.09;;;20.64;100.00
19777;BME280;10047;42.490;26.012;2023-06-14T05:08:33;101833.88;;;20.73;100.00
19777;BME280;10047;42.490;26.012;2023-06-14T05:10:59;101759.81;;;20.51;100.00
19777;BME280;10047;42.490;26.012;2023-06-14T05:16:46;101730.28;;;21.37;100.00
19777;BME280;10047;42.490;26.012;2023-06-14T05:19:13;101776.72;;;20.80;100.00
19777;BME280;10047;42.490;26.012;2023-06-14T05:21:39;101756.28;;;21.34;100.00
19777;BME280;10047;42.490;26.012;2023-06-14T05:24:05;101801.84;;;21.95;100.00
19777;BME280;10047;42.490;26.012;2023-06-14T05:26:30;101722.56;;;21.35;100.00
19777;BME280;10047;42.490;26.012;2023-06-14T05:28:56;101779.59;;;22.10;100.00
19777;BME280;10047;42.490;26.012;2023-06-14T05:31:23;101699.41;;;21.70;100.00
19777;BME280;10047;42.490;26.012;2023-06-14T05:37:10;101677.69;;;22.09;100.00
19777;BME280;10047;42.490;26.012;2023-06-14T05:39:36;101686.97;;;21.96;100.00
19777;BME280;10047;42.490;26.012;2023-06-14T05:42:01;101737.31;;;22.79;100.00
19777;BME280;10047;42.490;26.012;2023-06-14T05:44:26;101709.41;;;23.00;100.00
19777;BME280;10047;42.490;26.012;2023-06-14T05:46:52;101700.72;;;23.01;100.00
19777;BME280;10047;42.490;26.012;2023-06-14T05:49:17;101704.00;;;23.04;100.00
19777;BME280;10047;42.490;26.012;2023-06-14T05:51:42;101616.16;;;22.47;100.00
19777;BME280;10047;42.490;26.012;2023-06-14T05:54:08;101657.38;;;23.03;100.00
19777;BME280;10047;42.490;26.012;2023-06-14T05:56:33;101652.38;;;22.83;100.00
19777;BME280;10047;42.490;26.012;2023-06-14T05:58:59;101585.44;;;22.74;100.00
19777;BME280;10047;42.490;26.012;2023-06-14T06:01:25;101626.84;;;22.58;100.00
19777;BME280;10047;42.490;26.012;2023-06-14T06:03:51;101641.03;;;23.49;100.00
19777;BME280;10047;42.490;26.012;2023-06-14T06:06:18;101604.34;;;22.59;100.00
19777;BME280;10047;42.490;26.012;2023-06-14T06:08:44;101492.94;;;21.73;100.00
19777;BME280;10047;42.490;26.012;2023-06-14T06:11:09;101588.19;;;23.02;100.00
19777;BME280;10047;42.490;26.012;2023-06-14T06:13:35;101521.41;;;22.90;100.00
19777;BME280;10047;42.490;26.012;2023-06-14T06:16:02;101572.38;;;24.14;100.00
19777;BME280;10047;42.490;26.012;2023-06-14T06:18:28;101540.50;;;24.25;100.00
19777;BME280;10047;42.490;26.012;2023-06-14T06:20:53;101512.41;;;23.58;100.00
19777;BME280;10047;42.490;26.012;2023-06-14T06:23:18;101470.88;;;22.66;100.00
19777;BME280;10047;42.490;26.012;2023-06-14T06:25:44;101530.34;;;23.62;100.00
19777;BME280;10047;42.490;26.012;2023-06-14T06:28:09;101520.06;;;24.19;100.00
19777;BME280;10047;42.490;26.012;2023-06-14T06:30:36;101501.97;;;23.73;100.00
19777;BME280;10047;42.490;26.012;2023-06-14T06:36:23;101403.09;;;24.19;100.00
19777;BME280;10047;42.490;26.012;2023-06-14T06:38:49;101405.09;;;23.85;100.00
19777;BME280;10047;42.490;26.012;2023-06-14T06:41:15;101378.31;;;24.13;100.00
19777;BME280;10047;42.490;26.012;2023-06-14T06:43:41;101298.31;;;24.31;100.00
19777;BME280;10047;42.490;26.012;2023-06-14T06:46:06;101271.25;;;24.86;100.00
19777;BME280;10047;42.490;26.012;2023-06-14T06:48:32;101263.44;;;24.86;100.00
19777;BME280;10047;42.490;26.012;2023-06-14T06:50:57;101272.19;;;24.59;100.00
19777;BME280;10047;42.490;26.012;2023-06-14T06:53:23;101170.63;;;24.60;100.00
19777;BME280;10047;42.490;26.012;2023-06-14T06:59:10;101103.19;;;25.56;100.00
19777;BME280;10047;42.490;26.012;2023-06-14T07:05:16;100952.78;;;25.58;100.00
19777;BME280;10047;42.490;26.012;2023-06-14T07:11:03;100872.50;;;24.94;100.00
19777;BME280;10047;42.490;26.012;2023-06-14T07:13:28;100836.00;;;25.52;100.00
19777;BME280;10047;42.490;26.012;2023-06-14T07:15:54;100801.50;;;25.27;100.00
19777;BME280;10047;42.490;26.012;2023-06-14T07:18:22;100781.03;;;25.77;100.00
19777;BME280;10047;42.490;26.012;2023-06-14T07:24:09;100626.16;;;25.59;100.00
19777;BME280;10047;42.490;26.012;2023-06-14T07:26:35;100633.00;;;26.14;100.00
19777;BME280;10047;42.490;26.012;2023-06-14T07:29:01;100498.88;;;25.23;100.00
19777;BME280;10047;42.490;26.012;2023-06-14T07:31:27;100515.59;;;25.52;100.00
19777;BME280;10047;42.490;26.012;2023-06-14T07:33:52;100456.03;;;26.30;100.00
19777;BME280;10047;42.490;26.012;2023-06-14T07:36:18;100450.97;;;25.46;100.00
19777;BME280;10047;42.490;26.012;2023-06-14T07:38:43;100426.19;;;26.14;100.00
19777;BME280;10047;42.490;26.012;2023-06-14T07:41:09;100327.88;;;26.54;100.00
19777;BME280;10047;42.490;26.012;2023-06-14T07:43:34;100330.63;;;26.62;100.00
19777;BME280;10047;42.490;26.012;2023-06-14T07:49:21;100271.56;;;26.42;100.00
19777;BME280;10047;42.490;26.012;2023-06-14T07:51:47;100234.16;;;27.08;100.00
19777;BME280;10047;42.490;26.012;2023-06-14T07:54:13;100196.84;;;26.03;100.00
19777;BME280;10047;42.490;26.012;2023-06-14T07:56:39;100227.28;;;26.02;100.00
19777;BME280;10047;42.490;26.012;2023-06-14T07:59:04;100075.38;;;26.48;100.00
19777;BME280;10047;42.490;26.012;2023-06-14T08:01:31;100126.13;;;26.73;100.00
19777;BME280;10047;42.490;26.012;2023-06-14T08:03:56;100138.78;;;25.32;100.00
19777;BME280;10047;42.490;26.012;2023-06-14T08:06:22;100215.56;;;25.68;100.00
19777;BME280;10047;42.490;26.012;2023-06-14T08:08:47;100269.94;;;26.60;100.00
19777;BME280;10047;42.490;26.012;2023-06-14T08:11:13;100388.72;;;25.64;100.00
19777;BME280;10047;42.490;26.012;2023-06-14T08:13:38;100554.59;;;25.21;100.00
19777;BME280;10047;42.490;26.012;2023-06-14T08:16:04;100688.53;;;26.67;100.00
19777;BME280;10047;42.490;26.012;2023-06-14T08:18:30;100997.97;;;26.60;100.00
19777;BME280;10047;42.490;26.012;2023-06-14T08:20:55;101301.41;;;26.15;100.00
19777;BME280;10047;42.490;26.012;2023-06-14T08:23:22;101660.75;;;25.70;100.00
19777;BME280;10047;42.490;26.012;2023-06-14T08:29:09;102153.00;;;26.08;100.00
19777;BME280;10047;42.490;26.012;2023-06-14T08:34:56;102403.47;;;25.41;100.00
19777;BME280;10047;42.490;26.012;2023-06-14T08:37:22;102526.94;;;25.20;100.00
19777;BME280;10047;42.490;26.012;2023-06-14T08:39:47;103004.06;;;24.89;100.00
19777;BME280;10047;42.490;26.012;2023-06-14T08:42:14;103001.28;;;25.15;100.00
19777;BME280;10047;42.490;26.012;2023-06-14T08:48:01;102922.06;;;26.37;100.00
19777;BME280;10047;42.490;26.012;2023-06-14T08:50:28;102825.09;;;26.80;100.00
19777;BME280;10047;42.490;26.012;2023-06-14T08:52:57;102857.66;;;27.74;100.00
19777;BME280;10047;42.490;26.012;2023-06-14T08:55:26;102610.53;;;26.88;100.00
19777;BME280;10047;42.490;26.012;2023-06-14T08:57:54;102515.81;;;26.84;100.00
19777;BME280;10047;42.490;26.012;2023-06-14T09:00:21;102470.56;;;26.68;100.00
19777;BME280;10047;42.490;26.012;2023-06-14T09:02:47;102271.56;;;25.71;100.00
19777;BME280;10047;42.490;26.012;2023-06-14T09:08:54;102113.06;;;26.93;100.00
19777;BME280;10047;42.490;26.012;2023-06-14T09:11:22;102105.94;;;27.50;100.00
19777;BME280;10047;42.490;26.012;2023-06-14T09:13:49;102122.06;;;26.59;100.00
19777;BME280;10047;42.490;26.012;2023-06-14T09:19:36;102351.09;;;26.42;100.00
19777;BME280;10047;42.490;26.012;2023-06-14T09:22:03;102472.66;;;26.46;100.00
19777;BME280;10047;42.490;26.012;2023-06-14T09:24:28;102479.59;;;27.83;100.00
19777;BME280;10047;42.490;26.012;2023-06-14T09:26:54;102298.22;;;26.23;100.00
19777;BME280;10047;42.490;26.012;2023-06-14T09:29:19;102292.50;;;26.77;100.00
19777;BME280;10047;42.490;26.012;2023-06-14T09:31:47;102341.78;;;26.05;100.00
19777;BME280;10047;42.490;26.012;2023-06-14T09:34:13;101729.75;;;25.92;100.00
19777;BME280;10047;42.490;26.012;2023-06-14T09:36:39;101569.97;;;25.50;100.00
19777;BME280;10047;42.490;26.012;2023-06-14T09:39:06;101681.00;;;26.45;100.00
19777;BME280;10047;42.490;26.012;2023-06-14T09:41:37;101581.84;;;26.58;100.00
19777;BME280;10047;42.490;26.012;2023-06-14T09:44:08;101468.59;;;27.08;100.00
19777;BME280;10047;42.490;26.012;2023-06-14T09:49:55;100069.38;;;26.28;100.00
19777;BME280;10047;42.490;26.012;2023-06-14T09:52:21;100069.97;;;26.59;100.00
19777;BME280;10047;42.490;26.012;2023-06-14T09:54:48;99993.22;;;26.89;100.00
19777;BME280;10047;42.490;26.012;2023-06-14T09:57:22;99902.19;;;27.90;100.00
19777;BME280;10047;42.490;26.012;2023-06-14T09:59:48;100266.56;;;27.34;100.00
19777;BME280;10047;42.490;26.012;2023-06-14T10:02:35;100463.53;;;27.13;100.00
19777;BME280;10047;42.490;26.012;2023-06-14T10:05:07;100422.50;;;26.66;100.00
19777;BME280;10047;42.490;26.012;2023-06-14T10:10:17;100433.16;;;26.53;100.00
19777;BME280;10047;42.490;26.012;2023-06-14T10:12:43;100482.44;;;26.86;100.00
19777;BME280;10047;42.490;26.012;2023-06-14T10:15:10;100497.00;;;26.49;100.00
19777;BME280;10047;42.490;26.012;2023-06-14T10:17:51;100561.69;;;27.15;100.00
19777;BME280;10047;42.490;26.012;2023-06-14T10:20:33;100522.84;;;27.51;100.00
19777;BME280;10047;42.490;26.012;2023-06-14T10:23:10;100526.22;;;27.13;100.00
19777;BME280;10047;42.490;26.012;2023-06-14T10:25:37;100495.44;;;27.16;100.00
19777;BME280;10047;42.490;26.012;2023-06-14T10:28:12;100380.50;;;27.16;100.00
19777;BME280;10047;42.490;26.012;2023-06-14T10:30:40;100367.16;;;27.48;100.00
19777;BME280;10047;42.490;26.012;2023-06-14T10:33:19;100352.56;;;28.01;100.00
19777;BME280;10047;42.490;26.012;2023-06-14T10:35:45;100294.94;;;28.38;100.00
19777;BME280;10047;42.490;26.012;2023-06-14T10:38:14;100173.22;;;29.29;100.00
19777;BME280;10047;42.490;26.012;2023-06-14T10:40:40;100094.94;;;28.92;100.00
19777;BME280;10047;42.490;26.012;2023-06-14T10:43:22;100084.34;;;28.42;100.00
19777;BME280;10047;42.490;26.012;2023-06-14T10:46:19;99850.41;;;30.12;100.00
19777;BME280;10047;42.490;26.012;2023-06-14T10:48:48;99467.63;;;30.17;100.00
19777;BME280;10047;42.490;26.012;2023-06-14T10:54:35;99316.72;;;28.96;100.00
19777;BME280;10047;42.490;26.012;2023-06-14T10:57:01;99407.03;;;30.12;100.00
19777;BME280;10047;42.490;26.012;2023-06-14T10:59:26;99410.97;;;27.56;100.00
19777;BME280;10047;42.490;26.012;2023-06-14T11:04:52;99570.63;;;28.82;100.00
19777;BME280;10047;42.490;26.012;2023-06-14T11:10:36;99617.97;;;28.16;100.00
19777;BME280;10047;42.490;26.012;2023-06-14T11:16:26;99748.44;;;27.52;100.00
19777;BME280;10047;42.490;26.012;2023-06-14T11:22:14;99843.63;;;27.06;100.00
19777;BME280;10047;42.490;26.012;2023-06-14T11:24:40;99858.78;;;27.63;100.00
19777;BME280;10047;42.490;26.012;2023-06-14T11:27:06;99776.50;;;27.24;100.00
19777;BME280;10047;42.490;26.012;2023-06-14T11:29:31;99809.78;;;27.65;100.00
19777;BME280;10047;42.490;26.012;2023-06-14T11:31:57;99857.41;;;28.10;100.00
19777;BME280;10047;42.490;26.012;2023-06-14T11:34:22;99834.78;;;27.68;100.00
19777;BME280;10047;42.490;26.012;2023-06-14T11:36:47;99821.22;;;27.21;100.00
19777;BME280;10047;42.490;26.012;2023-06-14T11:39:13;99816.66;;;27.23;100.00
19777;BME280;10047;42.490;26.012;2023-06-14T11:41:43;99851.31;;;27.76;100.00
19777;BME280;10047;42.490;26.012;2023-06-14T11:44:10;99812.88;;;28.44;100.00
19777;BME280;10047;42.490;26.012;2023-06-14T11:46:35;99783.69;;;27.81;100.00
19777;BME280;10047;42.490;26.012;2023-06-14T11:49:02;99856.13;;;27.89;100.00
19777;BME280;10047;42.490;26.012;2023-06-14T11:51:31;99885.81;;;27.80;100.00
19777;BME280;10047;42.490;26.012;2023-06-14T11:53:57;99873.44;;;27.38;100.00
19777;BME280;10047;42.490;26.012;2023-06-14T11:59:45;99924.91;;;27.64;100.00
19777;BME280;10047;42.490;26.012;2023-06-14T12:05:33;99906.78;;;27.62;100.00
19777;BME280;10047;42.490;26.012;2023-06-14T12:08:00;99886.94;;;28.03;100.00
19777;BME280;10047;42.490;26.012;2023-06-14T12:10:29;99831.41;;;27.32;100.00
19777;BME280;10047;42.490;26.012;2023-06-14T12:13:00;99844.22;;;27.17;100.00
19777;BME280;10047;42.490;26.012;2023-06-14T12:18:46;99812.34;;;27.31;100.00
19777;BME280;10047;42.490;26.012;2023-06-14T12:21:12;99805.31;;;28.33;100.00
19777;BME280;10047;42.490;26.012;2023-06-14T12:23:48;99784.41;;;28.41;100.00
19777;BME280;10047;42.490;26.012;2023-06-14T12:26:18;99753.63;;;27.35;100.00
19777;BME280;10047;42.490;26.012;2023-06-14T12:28:47;99820.00;;;27.84;100.00
19777;BME280;10047;42.490;26.012;2023-06-14T12:31:14;99754.66;;;27.51;100.00
19777;BME280;10047;42.490;26.012;2023-06-14T12:33:40;99811.63;;;27.21;100.00
19777;BME280;10047;42.490;26.012;2023-06-14T12:36:07;99785.53;;;26.86;100.00
19777;BME280;10047;42.490;26.012;2023-06-14T12:38:33;99842.56;;;27.16;100.00
19777;BME280;10047;42.490;26.012;2023-06-14T12:40:59;99789.41;;;26.82;100.00
19777;BME280;10047;42.490;26.012;2023-06-14T12:43:24;99851.81;;;27.11;100.00
19777;BME280;10047;42.490;26.012;2023-06-14T12:45:50;99845.00;;;27.18;100.00
19777;BME280;10047;42.490;26.012;2023-06-14T12:48:15;99792.16;;;26.98;100.00
19777;BME280;10047;42.490;26.012;2023-06-14T12:50:41;99826.78;;;27.00;100.00
19777;BME280;10047;42.490;26.012;2023-06-14T12:53:07;99836.00;;;27.56;100.00
19777;BME280;10047;42.490;26.012;2023-06-14T12:55:32;99808.69;;;27.24;100.00
19777;BME280;10047;42.490;26.012;2023-06-14T12:57:58;99846.50;;;27.20;100.00
19777;BME280;10047;42.490;26.012;2023-06-14T13:00:23;99885.41;;;27.67;100.00
19777;BME280;10047;42.490;26.012;2023-06-14T13:06:12;99848.03;;;28.00;100.00
19777;BME280;10047;42.490;26.012;2023-06-14T13:08:38;99863.88;;;27.47;100.00
19777;BME280;10047;42.490;26.012;2023-06-14T13:11:03;99793.56;;;27.62;100.00
19777;BME280;10047;42.490;26.012;2023-06-14T13:13:29;99830.75;;;28.65;100.00
19777;BME280;10047;42.490;26.012;2023-06-14T13:15:54;99826.03;;;29.33;100.00
19777;BME280;10047;42.490;26.012;2023-06-14T13:18:20;99819.81;;;28.77;100.00
19777;BME280;10047;42.490;26.012;2023-06-14T13:20:46;99805.72;;;29.27;100.00
19777;BME280;10047;42.490;26.012;2023-06-14T13:26:33;99832.47;;;29.93;100.00
19777;BME280;10047;42.490;26.012;2023-06-14T13:28:59;99822.44;;;29.01;100.00
19777;BME280;10047;42.490;26.012;2023-06-14T13:31:25;99763.63;;;28.40;100.00
19777;BME280;10047;42.490;26.012;2023-06-14T13:33:51;99798.19;;;28.01;100.00
19777;BME280;10047;42.490;26.012;2023-06-14T13:36:16;99815.53;;;28.02;100.00
19777;BME280;10047;42.490;26.012;2023-06-14T13:38:43;99772.94;;;27.84;100.00
19777;BME280;10047;42.490;26.012;2023-06-14T13:41:09;99787.69;;;27.60;100.00
19777;BME280;10047;42.490;26.012;2023-06-14T13:43:34;99843.09;;;27.71;100.00
19777;BME280;10047;42.490;26.012;2023-06-14T13:46:00;99852.31;;;27.32;100.00
19777;BME280;10047;42.490;26.012;2023-06-14T13:48:25;99853.84;;;27.17;100.00
19777;BME280;10047;42.490;26.012;2023-06-14T13:50:51;99891.50;;;27.32;100.00
19777;BME280;10047;42.490;26.012;2023-06-14T13:56:38;99998.25;;;27.44;100.00
19777;BME280;10047;42.490;26.012;2023-06-14T13:59:04;99971.56;;;27.23;100.00
19777;BME280;10047;42.490;26.012;2023-06-14T14:01:29;100025.78;;;27.57;100.00
19777;BME280;10047;42.490;26.012;2023-06-14T14:03:55;99992.59;;;27.22;100.00
19777;BME280;10047;42.490;26.012;2023-06-14T14:06:21;100084.22;;;27.38;100.00
19777;BME280;10047;42.490;26.012;2023-06-14T14:08:46;100069.22;;;27.58;100.00
19777;BME280;10047;42.490;26.012;2023-06-14T14:11:12;100062.81;;;27.07;100.00
19777;BME280;10047;42.490;26.012;2023-06-14T14:13:38;100062.88;;;27.78;100.00
19777;BME280;10047;42.490;26.012;2023-06-14T14:19:26;100034.00;;;27.97;100.00
19777;BME280;10047;42.490;26.012;2023-06-14T14:25:13;100011.63;;;28.54;100.00
19777;BME280;10047;42.490;26.012;2023-06-14T14:27:39;99977.34;;;28.73;100.00
19777;BME280;10047;42.490;26.012;2023-06-14T14:30:05;99902.63;;;28.03;100.00
19777;BME280;10047;42.490;26.012;2023-06-14T14:32:30;99892.34;;;28.51;100.00
19777;BME280;10047;42.490;26.012;2023-06-14T14:38:17;99907.63;;;28.56;100.00
19777;BME280;10047;42.490;26.012;2023-06-14T14:40:44;99898.84;;;28.39;100.00
19777;BME280;10047;42.490;26.012;2023-06-14T14:43:10;99908.22;;;28.50;100.00
19777;BME280;10047;42.490;26.012;2023-06-14T14:45:36;99847.59;;;28.70;100.00
19777;BME280;10047;42.490;26.012;2023-06-14T14:48:01;99840.81;;;27.68;100.00
19777;BME280;10047;42.490;26.012;2023-06-14T14:50:27;99847.44;;;28.56;100.00
19777;BME280;10047;42.490;26.012;2023-06-14T14:52:53;99859.72;;;28.63;100.00
19777;BME280;10047;42.490;26.012;2023-06-14T14:55:18;99864.78;;;28.73;100.00
19777;BME280;10047;42.490;26.012;2023-06-14T14:57:45;99877.31;;;28.53;100.00
19777;BME280;10047;42.490;26.012;2023-06-14T15:00:11;99800.34;;;27.72;100.00
19777;BME280;10047;42.490;26.012;2023-06-14T15:02:37;99869.63;;;28.52;100.00
19777;BME280;10047;42.490;26.012;2023-06-14T15:05:02;99862.72;;;28.43;100.00
19777;BME280;10047;42.490;26.012;2023-06-14T15:07:28;99862.69;;;27.93;100.00
19777;BME280;10047;42.490;26.012;2023-06-14T15:13:21;99823.47;;;27.93;100.00
19777;BME280;10047;42.490;26.012;2023-06-14T15:15:48;99874.44;;;28.80;100.00
19777;BME280;10047;42.490;26.012;2023-06-14T15:18:13;99802.31;;;28.78;100.00
19777;BME280;10047;42.490;26.012;2023-06-14T15:20:40;99877.09;;;28.31;100.00
19777;BME280;10047;42.490;26.012;2023-06-14T15:26:28;99895.34;;;27.89;100.00
19777;BME280;10047;42.490;26.012;2023-06-14T15:28:54;99824.72;;;27.29;100.00
19777;BME280;10047;42.490;26.012;2023-06-14T15:31:19;99800.47;;;27.63;100.00
19777;BME280;10047;42.490;26.012;2023-06-14T15:33:45;99877.47;;;28.02;100.00
19777;BME280;10047;42.490;26.012;2023-06-14T15:36:10;99888.09;;;28.00;100.00
19777;BME280;10047;42.490;26.012;2023-06-14T15:38:36;99888.09;;;28.42;100.00
19777;BME280;10047;42.490;26.012;2023-06-14T15:41:01;99831.38;;;28.09;100.00
19777;BME280;10047;42.490;26.012;2023-06-14T15:46:48;99840.88;;;27.76;100.00
19777;BME280;10047;42.490;26.012;2023-06-14T15:49:14;99892.56;;;28.16;100.00
19777;BME280;10047;42.490;26.012;2023-06-14T15:51:40;99903.84;;;27.91;100.00